createdAt,value
2019-05-07T00:00:49.224Z,2.80
2019-05-07T00:03:18.351Z,2.70
2019-05-07T00:05:47.486Z,2.60
2019-05-07T00:08:16.886Z,2.60
2019-05-07T00:10:46.063Z,2.60
2019-05-07T00:13:15.247Z,2.50
2019-05-07T00:15:44.392Z,2.40
2019-05-07T00:18:13.499Z,2.40
2019-05-07T00:20:42.704Z,2.40
2019-05-07T00:23:12.438Z,2.40
2019-05-07T00:25:42.160Z,2.30
2019-05-07T00:28:12.260Z,2.30
2019-05-07T00:30:42.428Z,2.30
2019-05-07T00:33:13.151Z,2.20
2019-05-07T00:35:53.037Z,2.20
2019-05-07T00:38:23.835Z,2.20
2019-05-07T00:41:15.044Z,2.10
2019-05-07T00:43:45.979Z,2.10
2019-05-07T00:46:17.943Z,2.10
2019-05-07T00:48:47.076Z,2.00
2019-05-07T00:51:42.441Z,2.00
2019-05-07T00:54:12.308Z,2.00
2019-05-07T00:56:42.913Z,1.90
2019-05-07T00:59:13.105Z,1.90
2019-05-07T01:01:43.264Z,1.80
2019-05-07T01:04:12.473Z,1.80
2019-05-07T01:06:42.369Z,1.80
2019-05-07T01:09:12.322Z,1.80
2019-05-07T01:11:42.943Z,1.80
2019-05-07T01:14:12.415Z,1.70
2019-05-07T01:16:42.196Z,1.70
2019-05-07T01:19:12.597Z,1.70
2019-05-07T01:21:43.240Z,1.60
2019-05-07T01:24:12.458Z,1.60
2019-05-07T01:26:42.595Z,1.60
2019-05-07T01:29:12.873Z,1.60
2019-05-07T01:31:52.591Z,1.50
2019-05-07T01:34:39.796Z,1.50
2019-05-07T01:37:08.864Z,1.50
2019-05-07T01:39:38.292Z,1.50
2019-05-07T01:42:07.461Z,1.50
2019-05-07T01:44:36.635Z,1.50
2019-05-07T01:47:05.811Z,1.50
2019-05-07T01:49:34.923Z,1.50
2019-05-07T01:52:04.173Z,1.50
2019-05-07T01:54:33.569Z,1.40
2019-05-07T01:57:03.037Z,1.40
2019-05-07T01:59:32.369Z,1.40
2019-05-07T02:02:07.835Z,1.40
2019-05-07T02:04:58.843Z,1.40
2019-05-07T02:07:34.465Z,1.40
2019-05-07T02:10:22.726Z,1.30
2019-05-07T02:12:52.613Z,1.30
2019-05-07T02:15:22.633Z,1.30
2019-05-07T02:17:52.554Z,1.30
2019-05-07T02:20:22.522Z,1.30
2019-05-07T02:22:53.214Z,1.20
2019-05-07T02:25:22.575Z,1.20
2019-05-07T02:27:52.853Z,1.20
2019-05-07T02:30:23.630Z,1.20
2019-05-07T02:32:54.053Z,1.20
2019-05-07T02:35:23.692Z,1.20
2019-05-07T02:38:05.123Z,1.20
2019-05-07T02:40:43.346Z,1.20
2019-05-07T02:43:14.039Z,1.20
2019-05-07T02:46:20.781Z,1.30
2019-05-07T02:48:43.001Z,1.30
2019-05-07T02:51:19.768Z,1.40
2019-05-07T02:53:56.169Z,1.40
2019-05-07T02:56:25.276Z,1.50
2019-05-07T02:58:54.385Z,1.60
2019-05-07T03:01:23.564Z,1.70
2019-05-07T03:03:53.023Z,1.70
2019-05-07T03:06:23.283Z,1.90
2019-05-07T03:08:53.509Z,2.00
2019-05-07T03:11:23.002Z,2.10
2019-05-07T03:13:53.785Z,2.20
2019-05-07T03:16:38.169Z,2.30
2019-05-07T03:18:54.258Z,2.30
2019-05-07T03:21:23.727Z,2.50
2019-05-07T03:24:03.518Z,2.50
2019-05-07T03:26:37.279Z,2.60
2019-05-07T03:29:13.098Z,2.70
2019-05-07T03:31:56.388Z,2.80
2019-05-07T03:34:37.628Z,2.80
2019-05-07T03:37:07.792Z,3.00
2019-05-07T03:39:36.936Z,3.10
2019-05-07T03:42:06.139Z,3.10
2019-05-07T03:44:44.587Z,3.20
2019-05-07T03:47:23.947Z,3.30
2019-05-07T03:49:53.681Z,3.30
2019-05-07T03:52:24.538Z,3.40
2019-05-07T03:54:54.207Z,3.50
2019-05-07T03:57:23.978Z,3.50
2019-05-07T03:59:53.577Z,3.70
2019-05-07T04:02:23.803Z,3.70
2019-05-07T04:04:53.262Z,3.80
2019-05-07T04:07:23.448Z,3.90
2019-05-07T04:09:53.512Z,3.90
2019-05-07T04:12:23.830Z,4.00
2019-05-07T04:14:53.602Z,4.00
2019-05-07T04:17:26.710Z,4.10
2019-05-07T04:19:53.609Z,4.20
2019-05-07T04:22:26.494Z,4.30
2019-05-07T04:25:18.979Z,4.40
2019-05-07T04:27:58.444Z,4.50
2019-05-07T04:30:28.495Z,4.60
2019-05-07T04:32:59.245Z,4.70
2019-05-07T04:35:43.393Z,4.80
2019-05-07T04:38:13.857Z,4.90
2019-05-07T04:40:43.662Z,5.00
2019-05-07T04:43:13.808Z,5.10
2019-05-07T04:45:43.368Z,5.10
2019-05-07T04:48:14.261Z,5.20
2019-05-07T04:50:47.832Z,5.30
2019-05-07T04:53:15.949Z,5.40
2019-05-07T04:55:45.126Z,5.50
2019-05-07T04:58:14.404Z,5.60
2019-05-07T05:00:43.600Z,5.70
2019-05-07T05:03:26.472Z,5.80
2019-05-07T05:05:55.688Z,6.00
2019-05-07T05:08:24.879Z,6.20
2019-05-07T05:10:54.191Z,6.30
2019-05-07T05:13:23.956Z,6.50
2019-05-07T05:15:53.278Z,6.60
2019-05-07T05:18:22.783Z,6.80
2019-05-07T05:21:08.756Z,6.90
2019-05-07T05:24:02.630Z,7.00
2019-05-07T05:26:32.486Z,7.20
2019-05-07T05:29:02.416Z,7.40
2019-05-07T05:31:33.106Z,7.50
2019-05-07T05:34:02.336Z,7.70
2019-05-07T05:36:32.965Z,7.80
2019-05-07T05:39:02.617Z,7.90
2019-05-07T05:41:34.058Z,8.10
2019-05-07T05:44:15.040Z,8.30
2019-05-07T05:46:44.248Z,8.50
2019-05-07T05:49:13.684Z,8.60
2019-05-07T05:52:02.112Z,8.80
2019-05-07T05:54:38.047Z,8.90
2019-05-07T05:57:35.253Z,8.90
2019-05-07T06:00:24.276Z,9.00
2019-05-07T06:03:32.256Z,9.10
2019-05-07T06:06:17.486Z,9.30
2019-05-07T06:09:04.251Z,9.60
2019-05-07T06:11:52.001Z,9.70
2019-05-07T06:14:34.919Z,9.90
2019-05-07T06:17:22.438Z,10.10
2019-05-07T06:20:12.245Z,10.10
2019-05-07T06:22:52.861Z,10.10
2019-05-07T06:25:24.583Z,10.00
2019-05-07T06:27:53.758Z,10.00
2019-05-07T06:30:23.183Z,10.10
2019-05-07T06:32:52.421Z,10.10
2019-05-07T06:35:22.971Z,10.30
2019-05-07T06:37:52.447Z,10.40
2019-05-07T06:40:42.238Z,10.60
2019-05-07T06:43:28.046Z,10.80
2019-05-07T06:45:58.094Z,11.10
2019-05-07T06:48:40.859Z,11.70
2019-05-07T06:50:58.184Z,12.40
2019-05-07T06:53:33.451Z,12.80
2019-05-07T06:56:03.255Z,13.10
2019-05-07T06:58:52.867Z,13.20
2019-05-07T07:01:42.325Z,13.20
2019-05-07T07:04:18.451Z,13.00
2019-05-07T07:07:23.096Z,13.00
2019-05-07T07:09:58.871Z,13.10
2019-05-07T07:12:29.187Z,13.20
2019-05-07T07:14:59.328Z,13.70
2019-05-07T07:17:28.533Z,14.20
2019-05-07T07:19:57.570Z,14.40
2019-05-07T07:22:26.677Z,14.20
2019-05-07T07:24:55.813Z,13.90
2019-05-07T07:27:24.886Z,13.70
2019-05-07T07:30:02.019Z,13.50
2019-05-07T07:32:37.167Z,13.20
2019-05-07T07:35:08.887Z,12.80
2019-05-07T07:37:40.263Z,12.50
2019-05-07T07:40:22.293Z,12.20
2019-05-07T07:42:52.055Z,11.90
2019-05-07T07:45:23.077Z,11.70
2019-05-07T07:47:53.055Z,11.60
2019-05-07T07:50:22.566Z,11.40
2019-05-07T07:52:52.979Z,11.20
2019-05-07T07:55:27.729Z,11.00
2019-05-07T07:58:11.939Z,10.90
2019-05-07T08:00:49.531Z,10.90
2019-05-07T08:03:18.694Z,10.90
2019-05-07T08:05:47.819Z,11.10
2019-05-07T08:08:16.999Z,11.10
2019-05-07T08:10:46.492Z,11.20
2019-05-07T08:13:15.631Z,11.40
2019-05-07T08:15:44.931Z,11.60
2019-05-07T08:18:14.155Z,11.90
2019-05-07T08:20:43.596Z,12.30
2019-05-07T08:23:12.752Z,12.80
2019-05-07T08:25:47.714Z,13.20
2019-05-07T08:28:17.719Z,13.40
2019-05-07T08:30:53.684Z,13.90
2019-05-07T08:33:32.111Z,14.10
2019-05-07T08:36:14.498Z,14.40
2019-05-07T08:38:53.051Z,15.00
2019-05-07T08:41:23.601Z,15.40
2019-05-07T08:44:08.278Z,15.60
2019-05-07T08:46:37.980Z,15.60
2019-05-07T08:49:08.367Z,15.20
2019-05-07T08:51:37.446Z,14.80
2019-05-07T08:54:06.657Z,14.60
2019-05-07T08:56:36.234Z,14.40
2019-05-07T08:59:06.019Z,14.30
2019-05-07T09:01:35.695Z,14.20
2019-05-07T09:04:05.108Z,14.10
2019-05-07T09:06:34.296Z,14.00
2019-05-07T09:09:09.030Z,13.70
2019-05-07T09:11:38.256Z,13.30
2019-05-07T09:14:07.476Z,12.80
2019-05-07T09:16:36.650Z,12.30
2019-05-07T09:19:05.828Z,11.90
2019-05-07T09:21:36.506Z,11.50
2019-05-07T09:24:06.323Z,11.20
2019-05-07T09:26:42.008Z,11.00
2019-05-07T09:29:19.465Z,10.80
2019-05-07T09:32:06.178Z,10.60
2019-05-07T09:34:38.732Z,10.50
2019-05-07T09:37:09.591Z,10.50
2019-05-07T09:39:39.699Z,10.50
2019-05-07T09:42:08.908Z,10.50
2019-05-07T09:44:37.935Z,10.50
2019-05-07T09:47:07.083Z,10.50
2019-05-07T09:49:36.288Z,10.40
2019-05-07T09:52:06.040Z,10.50
2019-05-07T09:54:35.308Z,10.40
2019-05-07T09:57:04.808Z,10.50
2019-05-07T09:59:33.982Z,10.60
2019-05-07T10:02:03.642Z,10.80
2019-05-07T10:04:32.924Z,11.10
2019-05-07T10:07:02.661Z,11.70
2019-05-07T10:09:32.856Z,12.20
2019-05-07T10:12:22.429Z,12.60
2019-05-07T10:14:52.278Z,12.90
2019-05-07T10:17:28.068Z,12.80
2019-05-07T10:19:57.361Z,12.80
2019-05-07T10:22:26.557Z,12.70
2019-05-07T10:24:56.094Z,12.60
2019-05-07T10:27:25.311Z,12.30
2019-05-07T10:29:54.466Z,12.00
2019-05-07T10:32:23.734Z,11.90
2019-05-07T10:34:53.036Z,11.80
2019-05-07T10:37:22.227Z,11.80
2019-05-07T10:39:51.960Z,11.70
2019-05-07T10:42:22.689Z,11.60
2019-05-07T10:45:13.053Z,11.50
2019-05-07T10:48:02.550Z,11.80
2019-05-07T10:50:38.792Z,12.00
2019-05-07T10:53:02.634Z,12.10
2019-05-07T10:55:32.848Z,12.10
2019-05-07T10:58:03.021Z,12.20
2019-05-07T11:00:33.146Z,12.20
2019-05-07T11:03:02.594Z,12.30
2019-05-07T11:05:33.806Z,12.40
2019-05-07T11:08:04.031Z,12.70
2019-05-07T11:10:33.185Z,13.00
2019-05-07T11:13:02.629Z,13.10
2019-05-07T11:15:32.679Z,13.30
2019-05-07T11:18:12.579Z,13.70
2019-05-07T11:20:49.312Z,14.00
2019-05-07T11:23:12.495Z,14.00
2019-05-07T11:25:42.054Z,14.00
2019-05-07T11:28:12.393Z,14.00
2019-05-07T11:30:42.581Z,14.00
2019-05-07T11:33:12.742Z,13.80
2019-05-07T11:35:42.377Z,13.60
2019-05-07T11:38:20.621Z,13.60
2019-05-07T11:40:42.880Z,13.70
2019-05-07T11:43:25.006Z,14.10
2019-05-07T11:46:03.268Z,14.40
2019-05-07T11:48:36.177Z,14.40
2019-05-07T11:51:20.232Z,14.30
2019-05-07T11:54:08.319Z,14.40
2019-05-07T11:56:37.519Z,14.50
2019-05-07T11:59:06.819Z,14.60
2019-05-07T12:01:46.626Z,14.60
2019-05-07T12:04:07.664Z,14.50
2019-05-07T12:06:36.823Z,14.40
2019-05-07T12:09:07.888Z,14.60
2019-05-07T12:11:36.991Z,14.80
2019-05-07T12:14:06.455Z,15.00
2019-05-07T12:16:35.598Z,15.10
2019-05-07T12:19:05.081Z,15.00
2019-05-07T12:21:34.315Z,15.00
2019-05-07T12:24:03.799Z,14.80
2019-05-07T12:26:34.636Z,14.90
2019-05-07T12:29:05.871Z,15.10
2019-05-07T12:31:57.125Z,15.30
2019-05-07T12:34:33.443Z,15.40
2019-05-07T12:37:02.622Z,15.70
2019-05-07T12:39:31.988Z,15.70
2019-05-07T12:42:03.238Z,15.50
2019-05-07T12:44:33.512Z,15.40
2019-05-07T12:47:03.023Z,15.20
2019-05-07T12:49:32.538Z,15.10
2019-05-07T12:52:31.918Z,14.90
2019-05-07T12:55:05.339Z,14.90
2019-05-07T12:57:34.485Z,14.80
2019-05-07T13:00:24.205Z,14.80
2019-05-07T13:03:16.338Z,14.70
2019-05-07T13:05:45.547Z,14.60
2019-05-07T13:08:14.692Z,14.60
2019-05-07T13:10:43.872Z,14.50
2019-05-07T13:13:13.077Z,14.40
2019-05-07T13:15:43.376Z,14.40
2019-05-07T13:18:12.760Z,14.50
2019-05-07T13:20:41.951Z,14.30
2019-05-07T13:23:11.976Z,14.30
2019-05-07T13:25:42.913Z,14.10
2019-05-07T13:28:12.367Z,14.10
2019-05-07T13:30:43.760Z,14.10
2019-05-07T13:33:13.015Z,14.10
2019-05-07T13:35:44.384Z,14.10
2019-05-07T13:38:33.363Z,14.10
2019-05-07T13:41:22.787Z,14.10
2019-05-07T13:44:22.732Z,13.90
2019-05-07T13:46:53.744Z,13.80
2019-05-07T13:49:23.039Z,13.70
2019-05-07T13:52:02.875Z,13.70
2019-05-07T13:54:23.195Z,13.80
2019-05-07T13:56:52.616Z,14.00
2019-05-07T13:59:22.443Z,14.30
2019-05-07T14:02:04.516Z,14.70
2019-05-07T14:04:32.623Z,14.80
2019-05-07T14:07:02.407Z,14.80
2019-05-07T14:09:32.586Z,14.70
2019-05-07T14:12:02.112Z,14.50
2019-05-07T14:14:34.180Z,14.50
2019-05-07T14:17:03.370Z,14.50
2019-05-07T14:19:32.817Z,14.50
2019-05-07T14:22:14.700Z,14.60
2019-05-07T14:24:36.857Z,14.70
2019-05-07T14:27:06.017Z,14.50
2019-05-07T14:29:35.212Z,14.40
2019-05-07T14:32:32.423Z,14.40
2019-05-07T14:35:14.460Z,14.40
2019-05-07T14:37:47.043Z,14.60
2019-05-07T14:40:27.079Z,15.00
2019-05-07T14:43:05.078Z,15.20
2019-05-07T14:45:34.211Z,15.20
2019-05-07T14:48:03.436Z,15.20
2019-05-07T14:50:32.980Z,15.20
2019-05-07T14:53:02.705Z,15.10
2019-05-07T14:55:32.530Z,14.90
2019-05-07T14:58:02.021Z,14.80
2019-05-07T15:00:31.497Z,14.80
2019-05-07T15:03:01.971Z,14.80
2019-05-07T15:05:31.504Z,14.70
2019-05-07T15:08:08.321Z,14.70
2019-05-07T15:10:32.578Z,14.60
2019-05-07T15:13:02.237Z,14.50
2019-05-07T15:15:31.590Z,14.40
2019-05-07T15:18:22.895Z,14.50
2019-05-07T15:20:52.547Z,14.50
2019-05-07T15:23:31.140Z,14.50
2019-05-07T15:26:02.696Z,14.50
2019-05-07T15:28:32.291Z,14.40
2019-05-07T15:31:12.338Z,14.30
2019-05-07T15:33:41.880Z,14.20
2019-05-07T15:36:11.957Z,14.20
2019-05-07T15:38:42.857Z,14.10
2019-05-07T15:41:12.218Z,14.10
2019-05-07T15:43:45.369Z,14.30
2019-05-07T15:46:12.239Z,14.30
2019-05-07T15:48:42.035Z,14.40
2019-05-07T15:51:11.855Z,14.40
2019-05-07T15:53:48.401Z,14.30
2019-05-07T15:56:17.586Z,14.30
2019-05-07T15:58:46.707Z,14.20
2019-05-07T16:01:15.835Z,14.20
2019-05-07T16:03:45.839Z,14.20
2019-05-07T16:06:15.015Z,14.20
2019-05-07T16:08:50.880Z,14.20
2019-05-07T16:11:20.105Z,14.10
2019-05-07T16:14:07.101Z,14.10
2019-05-07T16:16:38.507Z,14.10
2019-05-07T16:19:12.577Z,14.10
2019-05-07T16:21:42.548Z,14.10
2019-05-07T16:24:12.245Z,14.10
2019-05-07T16:26:41.888Z,14.10
2019-05-07T16:29:13.210Z,14.10
2019-05-07T16:31:43.871Z,14.00
2019-05-07T16:34:12.856Z,13.90
2019-05-07T16:36:42.108Z,13.90
2019-05-07T16:39:12.240Z,13.80
2019-05-07T16:41:42.241Z,13.70
2019-05-07T16:44:12.441Z,13.60
2019-05-07T16:46:42.297Z,13.50
2019-05-07T16:49:12.175Z,13.40
2019-05-07T16:51:44.577Z,13.40
2019-05-07T16:54:12.777Z,13.30
2019-05-07T16:56:59.682Z,13.20
2019-05-07T16:59:29.227Z,13.20
2019-05-07T17:02:02.705Z,13.00
2019-05-07T17:04:32.124Z,13.00
2019-05-07T17:07:03.456Z,12.90
2019-05-07T17:09:35.232Z,12.80
2019-05-07T17:12:06.283Z,12.70
2019-05-07T17:14:35.361Z,12.60
2019-05-07T17:17:04.503Z,12.50
2019-05-07T17:19:33.652Z,12.50
2019-05-07T17:22:04.771Z,12.40
2019-05-07T17:24:33.377Z,12.40
2019-05-07T17:27:02.812Z,12.30
2019-05-07T17:29:32.328Z,12.30
2019-05-07T17:32:01.746Z,12.20
2019-05-07T17:34:31.069Z,12.20
2019-05-07T17:37:01.980Z,12.10
2019-05-07T17:39:32.141Z,12.00
2019-05-07T17:42:02.470Z,12.00
2019-05-07T17:44:32.349Z,11.90
2019-05-07T17:47:02.014Z,11.90
2019-05-07T17:49:32.773Z,11.80
2019-05-07T17:52:02.970Z,11.70
2019-05-07T17:54:32.602Z,11.70
2019-05-07T17:57:02.154Z,11.60
2019-05-07T18:02:02.088Z,11.50
2019-05-07T18:02:12.192Z,11.50
2019-05-07T18:04:51.132Z,11.40
2019-05-07T18:07:13.800Z,11.30
2019-05-07T18:09:42.999Z,11.30
2019-05-07T18:12:12.435Z,11.20
2019-05-07T18:14:42.380Z,11.10
2019-05-07T18:17:22.032Z,11.10
2019-05-07T18:19:51.114Z,11.00
2019-05-07T18:22:22.151Z,10.90
2019-05-07T18:24:51.687Z,10.80
2019-05-07T18:27:25.026Z,10.80
2019-05-07T18:29:54.498Z,10.70
2019-05-07T18:32:28.931Z,10.60
2019-05-07T18:34:58.371Z,10.50
2019-05-07T18:37:27.865Z,10.40
2019-05-07T18:39:57.302Z,10.40
2019-05-07T18:42:26.716Z,10.30
2019-05-07T18:44:56.023Z,10.30
2019-05-07T18:47:25.525Z,10.20
2019-05-07T18:49:54.938Z,10.20
2019-05-07T18:52:24.327Z,10.10
2019-05-07T18:54:54.625Z,10.00
2019-05-07T18:57:24.054Z,10.00
2019-05-07T18:59:53.509Z,9.90
2019-05-07T19:02:22.967Z,9.90
2019-05-07T19:04:52.355Z,9.80
2019-05-07T19:07:23.088Z,9.70
2019-05-07T19:09:52.668Z,9.60
2019-05-07T19:12:24.985Z,9.50
2019-05-07T19:14:54.367Z,9.40
2019-05-07T19:17:25.691Z,9.40
2019-05-07T19:19:54.940Z,9.30
2019-05-07T19:22:24.391Z,9.20
2019-05-07T19:24:54.872Z,9.20
2019-05-07T19:27:24.307Z,9.10
2019-05-07T19:29:54.012Z,9.00
2019-05-07T19:32:23.487Z,8.90
2019-05-07T19:34:53.372Z,8.90
2019-05-07T19:37:23.169Z,8.80
2019-05-07T19:39:52.693Z,8.70
2019-05-07T19:42:22.162Z,8.70
2019-05-07T19:44:51.957Z,8.70
2019-05-07T19:47:23.258Z,8.70
2019-05-07T19:49:52.627Z,8.60
2019-05-07T19:52:23.109Z,8.60
2019-05-07T19:55:01.252Z,8.60
2019-05-07T19:57:28.532Z,8.60
2019-05-07T19:59:57.877Z,8.60
2019-05-07T20:02:32.158Z,8.60
2019-05-07T20:05:03.515Z,8.60
2019-05-07T20:07:33.121Z,8.50
2019-05-07T20:10:02.792Z,8.50
2019-05-07T20:12:32.737Z,8.50
2019-05-07T20:15:02.760Z,8.50
2019-05-07T20:17:33.604Z,8.50
2019-05-07T20:20:03.842Z,8.40
2019-05-07T20:22:33.426Z,8.40
2019-05-07T20:25:15.251Z,8.40
2019-05-07T20:27:33.836Z,8.40
2019-05-07T20:30:03.316Z,8.30
2019-05-07T20:32:33.055Z,8.30
2019-05-07T20:35:02.855Z,8.30
2019-05-07T20:37:32.972Z,8.30
2019-05-07T20:40:02.956Z,8.20
2019-05-07T20:42:32.929Z,8.20
2019-05-07T20:45:02.981Z,8.20
2019-05-07T20:47:32.743Z,8.20
2019-05-07T20:50:02.435Z,8.10
2019-05-07T20:52:32.631Z,8.10
2019-05-07T20:55:33.991Z,8.10
2019-05-07T20:58:03.763Z,8.10
2019-05-07T21:00:33.260Z,8.10
2019-05-07T21:03:23.380Z,8.00
2019-05-07T21:05:53.626Z,8.00
2019-05-07T21:08:23.707Z,7.90
2019-05-07T21:10:53.813Z,7.90
2019-05-07T21:13:31.033Z,7.90
2019-05-07T21:15:54.802Z,7.80
2019-05-07T21:18:24.285Z,7.70
2019-05-07T21:20:53.731Z,7.70
2019-05-07T21:23:23.417Z,7.60
2019-05-07T21:25:53.229Z,7.60
2019-05-07T21:28:22.834Z,7.50
2019-05-07T21:30:52.439Z,7.50
2019-05-07T21:33:22.887Z,7.50
2019-05-07T21:35:52.550Z,7.50
2019-05-07T21:38:22.618Z,7.50
2019-05-07T21:40:52.108Z,7.50
2019-05-07T21:43:22.136Z,7.50
2019-05-07T21:45:52.951Z,7.50
2019-05-07T21:48:22.631Z,7.50
2019-05-07T21:50:52.148Z,7.50
2019-05-07T21:53:42.775Z,7.50
2019-05-07T21:56:33.589Z,7.60
2019-05-07T21:59:06.584Z,7.60
2019-05-07T22:01:43.468Z,7.60
2019-05-07T22:04:12.496Z,7.60
2019-05-07T22:06:42.951Z,7.60
2019-05-07T22:09:13.208Z,7.60
2019-05-07T22:11:42.809Z,7.60
2019-05-07T22:14:13.043Z,7.60
2019-05-07T22:16:42.656Z,7.60
2019-05-07T22:19:12.332Z,7.60
2019-05-07T22:21:43.152Z,7.60
2019-05-07T22:24:15.081Z,7.60
2019-05-07T22:26:44.313Z,7.50
2019-05-07T22:29:13.848Z,7.50
2019-05-07T22:32:02.744Z,7.50
2019-05-07T22:34:43.895Z,7.40
2019-05-07T22:37:13.282Z,7.40
2019-05-07T22:39:42.750Z,7.30
2019-05-07T22:42:12.130Z,7.30
2019-05-07T22:44:42.573Z,7.20
2019-05-07T22:47:22.708Z,7.20
2019-05-07T22:49:53.489Z,7.20
2019-05-07T22:52:23.041Z,7.20
2019-05-07T22:54:52.446Z,7.20
2019-05-07T22:57:41.998Z,7.20
2019-05-07T23:00:17.951Z,7.20
2019-05-07T23:02:47.446Z,7.20
2019-05-07T23:05:16.910Z,7.20
2019-05-07T23:07:46.307Z,7.30
2019-05-07T23:10:15.721Z,7.30
2019-05-07T23:12:45.098Z,7.30
2019-05-07T23:15:14.705Z,7.30
2019-05-07T23:17:44.454Z,7.40
2019-05-07T23:20:14.005Z,7.40
2019-05-07T23:22:43.428Z,7.40
2019-05-07T23:25:12.949Z,7.40
2019-05-07T23:27:42.423Z,7.50
2019-05-07T23:30:12.997Z,7.50
2019-05-07T23:32:42.618Z,7.50
2019-05-07T23:35:12.747Z,7.50
2019-05-07T23:37:44.212Z,7.50
2019-05-07T23:40:23.127Z,7.50
2019-05-07T23:42:53.506Z,7.50
2019-05-07T23:45:22.953Z,7.40
2019-05-07T23:47:52.446Z,7.40
2019-05-07T23:50:21.839Z,7.40
2019-05-07T23:52:52.740Z,7.30
2019-05-07T23:55:22.810Z,7.30
2019-05-07T23:57:52.586Z,7.30
